Academy, Texas
Current Conditions -  °F | °C
As of 12:15 PM on Friday 31 Oct 2014 (Local Time) from KTPL Reporting Station
Clear Clear  
Wind Chill: 70°   Ceiling: Unl
Heat Index: 70°   Visibility: 10mi
Dew Point: 39°   Wind: 10mph
Humidity: 33%   Direction: 350°N
Pressure: 30.31"   Gusts: 22mph
Location:  30.9809°N, 97.3415°W
Report Text: KTPL 311715Z AUTO 35009G19KT 10SM CLR 21/04 A3031 RMK AO1
Loading
Personal Weather Stations






























Interactive Weather Map
Tropical Storm Tracking
New forecast layout! Learn more

10-Day Weather Forecast

Advertisements
Track Severe Weather on mobile